King of Scandinavia — OVOL2 — position and weather

sailwx.info

Track history (hours):
 
Tides and Currents Weather Stations Pressure Air Temp Water Temp Dewpoint Dewpoint Depression Visibility Wind Speed Wind Dir Waves Ship Positions

King of Scandinavia

Ship's website: http://www.dfds.co.uk/DSW/EN/OnBoard/na/KING.htm

Last reported at 2019-Jul-23 08:21 UTC. Time now 2019-Jul-23 08:59 UTC.
Position N 54°59' W 001°27'.

Length 166 m; beam 27.6 m; draft 6.2 m.

Type: Ship. MMSI: 220449000.

Date/timePositionNaut miles runAvg speedWind from/ knotsBaromVisibWave heightAir tempDewpointWater temp
2019-Jul-23 08:21N 54°59' W 001°27'0 0.5
2019-Jul-23 08:00N 54°60' W 001°27'4 8.9
2019-Jul-23 07:30N 55°00' W 001°19'815.2
2019-Jul-23 07:00N 54°56' W 001°08'9116.4
2019-Jul-23 01:28N 54°05' E 001°02'816.5
2019-Jul-23 01:00N 54°01' E 001°13'816.2
2019-Jul-23 00:30N 53°56' E 001°23'815.8
2019-Jul-23 00:00N 53°51' E 001°33'815.2
2019-Jul-22 23:30N 53°47' E 001°45'10416.0
2019-Jul-22 17:01N 52°44' E 004°03'515.3
2019-Jul-22 16:42N 52°41' E 004°09'515.2
2019-Jul-22 16:23N 52°38' E 004°15'615.1
2019-Jul-22 16:00N 52°34' E 004°22'714.7
2019-Jul-22 15:31N 52°29' E 004°31'3 5.8
2019-Jul-22 15:00N 52°28' E 004°35'0 0.0
2019-Jul-22 14:29N 52°28' E 004°35'0 0.0
2019-Jul-22 13:59N 52°28' E 004°35'0 0.0
2019-Jul-22 13:29N 52°28' E 004°35'0 0.0
2019-Jul-22 12:59N 52°28' E 004°35'0 0.0
2019-Jul-22 12:29N 52°28' E 004°35'0 0.0
2019-Jul-22 11:59N 52°28' E 004°35'0 0.0
2019-Jul-22 11:29N 52°28' E 004°35'0 0.0
2019-Jul-22 10:59N 52°28' E 004°35'0 0.0
2019-Jul-22 10:29N 52°28' E 004°35'0 0.0
2019-Jul-22 09:59N 52°28' E 004°35'0 0.0
2019-Jul-22 09:29N 52°28' E 004°35'0 0.0
2019-Jul-22 08:59N 52°28' E 004°35'0 0.0
2019-Jul-22 08:29N 52°28' E 004°35'0 0.0
2019-Jul-22 07:59N 52°28' E 004°35'0 0.1
2019-Jul-22 07:31N 52°28' E 004°35'5 9.2
2019-Jul-22 07:01N 52°29' E 004°28'815.8
2019-Jul-22 06:31N 52°35' E 004°19'816.3
2019-Jul-22 06:01N 52°40' E 004°09'1017.8
2019-Jul-22 05:25N 52°47' E 003°56'1018.0
2019-Jul-22 04:53N 52°54' E 003°43'1117.8
2019-Jul-22 04:16N 53°01' E 003°31'615.6
2019-Jul-22 03:53N 53°05' E 003°23'715.9
2019-Jul-22 03:28N 53°08' E 003°13'816.0
2019-Jul-22 03:00N 53°13' E 003°03'1716.1
2019-Jul-22 01:57N 53°22' E 002°40'2116.2
2019-Jul-22 00:38N 53°35' E 002°11'316.6
2019-Jul-22 00:29N 53°36' E 002°07'816.8
2019-Jul-22 00:01N 53°40' E 001°55'816.9
2019-Jul-21 23:31N 53°44' E 001°43'816.7
2019-Jul-21 23:01N 53°49' E 001°32'917.0
2019-Jul-21 22:31N 53°55' E 001°22'917.0
2019-Jul-21 22:00N 54°01' E 001°12'816.9
2019-Jul-21 21:31N 54°06' E 000°60'8518.8
2019-Jul-21 16:59N 54°53' W 001°02'919.1
2019-Jul-21 16:30N 54°58' W 001°16'713.1
2019-Jul-21 16:00N 54°60' W 001°27'1 1.2
2019-Jul-21 15:30N 54°59' W 001°27'0 0.0
2019-Jul-21 14:53N 54°59' W 001°27'0 0.0
2019-Jul-21 14:23N 54°59' W 001°27'0 0.0
2019-Jul-21 13:53N 54°59' W 001°27'0 0.0
2019-Jul-21 13:23N 54°59' W 001°27'0 0.0
2019-Jul-21 12:56N 54°59' W 001°27'0 0.0
2019-Jul-21 12:26N 54°59' W 001°27'0 0.0
2019-Jul-21 11:56N 54°59' W 001°27'0 0.0
2019-Jul-21 11:26N 54°59' W 001°27'0 0.0
2019-Jul-21 10:56N 54°59' W 001°27'0 0.0
2019-Jul-21 10:29N 54°59' W 001°27'0 0.0
2019-Jul-21 09:59N 54°59' W 001°27'0 0.0
2019-Jul-21 09:29N 54°59' W 001°27'0 0.0
2019-Jul-21 08:59N 54°59' W 001°27'0 0.0
2019-Jul-21 08:29N 54°59' W 001°27'0 0.3
2019-Jul-21 08:00N 54°60' W 001°27'4 8.1
2019-Jul-21 07:30N 55°00' W 001°20'714.9
2019-Jul-21 07:00N 54°56' W 001°09'8417.1
2019-Jul-21 02:05N 54°09' E 000°51'318.3
2019-Jul-21 01:56N 54°08' E 000°56'818.4
2019-Jul-21 01:30N 54°03' E 001°06'1018.1
2019-Jul-21 00:58N 53°57' E 001°19'817.6
2019-Jul-21 00:30N 53°52' E 001°30'917.2
2019-Jul-21 00:00N 53°48' E 001°43'916.9
2019-Jul-20 23:30N 53°45' E 001°56'10315.5
2019-Jul-20 16:48N 52°40' E 004°11'516.3
2019-Jul-20 16:30N 52°37' E 004°17'816.2
2019-Jul-20 16:00N 52°31' E 004°27'612.5
2019-Jul-20 15:30N 52°28' E 004°35'0 0.0
2019-Jul-20 15:00N 52°28' E 004°35'0 0.0
2019-Jul-20 14:29N 52°28' E 004°35'0 0.0
2019-Jul-20 13:59N 52°28' E 004°35'0 0.0
2019-Jul-20 13:29N 52°28' E 004°35'0 0.0
2019-Jul-20 12:59N 52°28' E 004°35'0 0.0
2019-Jul-20 12:29N 52°28' E 004°35'0 0.0
2019-Jul-20 11:59N 52°28' E 004°35'0 0.0
2019-Jul-20 11:29N 52°28' E 004°35'0 0.0
2019-Jul-20 10:59N 52°28' E 004°35'0 0.0
2019-Jul-20 10:29N 52°28' E 004°35'0 0.0
2019-Jul-20 09:59N 52°28' E 004°35'0 0.0
2019-Jul-20 09:29N 52°28' E 004°35'0 0.0
2019-Jul-20 08:59N 52°28' E 004°35'0 0.0
2019-Jul-20 08:29N 52°28' E 004°35'0 0.0
2019-Jul-20 07:59N 52°28' E 004°35'0 0.4
2019-Jul-20 07:30N 52°28' E 004°35'4 8.4
2019-Jul-20 07:00N 52°29' E 004°28'715.0
2019-Jul-20 06:30N 52°34' E 004°19'815.1
2019-Jul-20 06:00N 52°40' E 004°10'815.3
2019-Jul-20 05:30N 52°45' E 004°01'815.2
2019-Jul-20 05:00N 52°50' E 003°51'5815.6
2019-Jul-20 01:18N 53°25' E 002°35'817.5
2019-Jul-20 00:51N 53°30' E 002°24'1817.7
2019-Jul-19 23:49N 53°39' E 001°58'618.4
2019-Jul-19 23:30N 53°41' E 001°49'918.3
2019-Jul-19 23:00N 53°47' E 001°36'918.4
2019-Jul-19 22:30N 53°53' E 001°25'918.3
2019-Jul-19 22:01N 54°00' E 001°15'918.3
2019-Jul-19 21:31N 54°06' E 001°03'918.5
2019-Jul-19 21:00N 54°11' E 000°50'7819.0
2019-Jul-19 16:52N 54°53' W 001°03'719.0
2019-Jul-19 16:30N 54°57' W 001°14'815.4
2019-Jul-19 16:00N 55°00' W 001°26'1 2.4
2019-Jul-19 15:30N 54°59' W 001°27'0 0.0
2019-Jul-19 14:51N 54°59' W 001°27'0 0.0
2019-Jul-19 14:30N 54°59' W 001°27'0 0.0
2019-Jul-19 14:00N 54°59' W 001°27'0 0.0
2019-Jul-19 13:21N 54°59' W 001°27'0 0.0
2019-Jul-19 12:51N 54°59' W 001°27'0 0.0
2019-Jul-19 12:21N 54°59' W 001°27'0 0.0
2019-Jul-19 11:54N 54°59' W 001°27'0 0.0
2019-Jul-19 11:24N 54°59' W 001°27'0 0.0
2019-Jul-19 10:54N 54°59' W 001°27'0 0.0
2019-Jul-19 10:24N 54°59' W 001°27'0 0.0
2019-Jul-19 09:54N 54°59' W 001°27'0 0.0
2019-Jul-19 09:27N 54°59' W 001°27'0 0.0
2019-Jul-19 08:54N 54°59' W 001°27'0 0.0
2019-Jul-19 08:27N 54°59' W 001°27'1 1.8
2019-Jul-19 08:00N 55°00' W 001°27'611.8
2019-Jul-19 07:30N 54°60' W 001°16'917.6
2019-Jul-19 07:00N 54°55' W 001°03'8517.4
2019-Jul-19 02:06N 54°07' E 000°58'517.3
2019-Jul-19 01:49N 54°04' E 001°05'517.2
2019-Jul-19 01:30N 54°01' E 001°12'917.3
2019-Jul-19 01:00N 53°55' E 001°23'917.3
2019-Jul-19 00:30N 53°50' E 001°35'817.0
2019-Jul-19 00:01N 53°47' E 001°48'816.8
2019-Jul-18 23:31N 53°44' E 002°01'9415.9
2019-Jul-18 17:39N 52°44' E 004°02'1216.8
2019-Jul-18 16:56N 52°36' E 004°17'716.8
2019-Jul-18 16:31N 52°32' E 004°25'714.2
2019-Jul-18 16:01N 52°28' E 004°35'0 0.0
2019-Jul-18 15:30N 52°28' E 004°35'0 0.0
2019-Jul-18 15:00N 52°28' E 004°35'0 0.0
2019-Jul-18 14:28N 52°28' E 004°35'0 0.0
2019-Jul-18 13:58N 52°28' E 004°35'0 0.0
2019-Jul-18 13:28N 52°28' E 004°35'0 0.0
2019-Jul-18 12:58N 52°28' E 004°35'0 0.0
2019-Jul-18 12:28N 52°28' E 004°35'0 0.0
2019-Jul-18 11:58N 52°28' E 004°35'0 0.0
2019-Jul-18 11:28N 52°28' E 004°35'0 0.0
2019-Jul-18 10:58N 52°28' E 004°35'0 0.0
2019-Jul-18 10:28N 52°28' E 004°35'0 0.0
2019-Jul-18 09:58N 52°28' E 004°35'0 0.0
2019-Jul-18 09:28N 52°28' E 004°35'0 0.0
2019-Jul-18 08:58N 52°28' E 004°35'0 0.0
2019-Jul-18 08:28N 52°28' E 004°35'0 0.0
2019-Jul-18 07:58N 52°28' E 004°35'0 0.3
2019-Jul-18 07:30N 52°28' E 004°35'5 9.7
2019-Jul-18 07:00N 52°29' E 004°27'815.6
2019-Jul-18 06:30N 52°35' E 004°19'815.5
2019-Jul-18 06:00N 52°40' E 004°09'815.5
2019-Jul-18 05:30N 52°45' E 003°59'815.5
2019-Jul-18 05:00N 52°50' E 003°50'815.5
2019-Jul-18 04:30N 52°55' E 003°40'815.3
2019-Jul-18 04:00N 53°00' E 003°31'915.2
2019-Jul-18 03:23N 53°06' E 003°18'4816.4
2019-Jul-18 00:27N 53°34' E 002°13'817.4
2019-Jul-18 00:00N 53°38' E 002°01'917.7
2019-Jul-17 23:30N 53°42' E 001°48'917.8
2019-Jul-17 23:00N 53°47' E 001°35'918.0
2019-Jul-17 22:30N 53°53' E 001°24'918.5
2019-Jul-17 22:00N 53°59' E 001°13'918.6
2019-Jul-17 21:30N 54°05' E 001°01'8819.3
2019-Jul-17 16:58N 54°53' W 001°06'919.8
2019-Jul-17 16:30N 54°59' W 001°18'510.1
2019-Jul-17 16:00N 54°60' W 001°27'0 0.3
2019-Jul-17 15:30N 54°59' W 001°27'0 0.0
2019-Jul-17 14:55N 54°59' W 001°27'0 0.0
2019-Jul-17 14:25N 54°59' W 001°27'0 0.0
2019-Jul-17 13:55N 54°59' W 001°27'0 0.0
2019-Jul-17 13:25N 54°59' W 001°27'0 0.0
2019-Jul-17 12:55N 54°59' W 001°27'0 0.0
2019-Jul-17 12:28N 54°59' W 001°27'0 0.0
2019-Jul-17 11:58N 54°59' W 001°27'0 0.0
2019-Jul-17 11:28N 54°59' W 001°27'0 0.0
2019-Jul-17 10:55N 54°59' W 001°27'0 0.0
2019-Jul-17 10:25N 54°59' W 001°27'0 0.0
2019-Jul-17 09:58N 54°59' W 001°27'0 0.0
2019-Jul-17 09:28N 54°59' W 001°27'0 0.0
2019-Jul-17 08:58N 54°59' W 001°27'0 0.0
2019-Jul-17 08:28N 54°59' W 001°27'0 0.2
2019-Jul-17 08:00N 54°59' W 001°27'4 7.5
2019-Jul-17 07:30N 55°01' W 001°21'917.1
2019-Jul-17 07:01N 54°56' W 001°08'816.4
2019-Jul-17 06:31N 54°51' W 000°56'7815.5
2019-Jul-17 01:28N 54°08' E 000°55'716.1
2019-Jul-17 01:00N 54°03' E 001°06'816.6
2019-Jul-17 00:30N 53°58' E 001°17'1117.0
2019-Jul-16 23:53N 53°52' E 001°31'617.1
2019-Jul-16 23:31N 53°48' E 001°39'1017.9
2019-Jul-16 22:58N 53°44' E 001°55'918.6
2019-Jul-16 22:30N 53°40' E 002°08'6616.7
2019-Jul-16 18:34N 52°59' E 003°33'115.6
2019-Jul-16 18:30N 52°58' E 003°34'1316.0
2019-Jul-16 17:42N 52°49' E 003°50'2016.5
2019-Jul-16 16:29N 52°37' E 004°16'816.7
2019-Jul-16 16:01N 52°31' E 004°26'713.5
2019-Jul-16 15:30N 52°28' E 004°35'0 0.1
2019-Jul-16 15:01N 52°28' E 004°35'0 0.0
2019-Jul-16 14:28N 52°28' E 004°35'0 0.0
2019-Jul-16 13:58N 52°28' E 004°35'0 0.0
2019-Jul-16 13:28N 52°28' E 004°35'0 0.0
2019-Jul-16 12:58N 52°28' E 004°35'0 0.0
2019-Jul-16 12:28N 52°28' E 004°35'0 0.0
2019-Jul-16 11:58N 52°28' E 004°35'0 0.0
2019-Jul-16 11:28N 52°28' E 004°35'0 0.0
2019-Jul-16 10:55N 52°28' E 004°35'0 0.0
2019-Jul-16 10:28N 52°28' E 004°35'0 0.0
2019-Jul-16 09:55N 52°28' E 004°35'0 0.0
2019-Jul-16 09:25N 52°28' E 004°35'0 0.0
2019-Jul-16 08:55N 52°28' E 004°35'0 0.0
2019-Jul-16 08:25N 52°28' E 004°35'0 0.0
2019-Jul-16 07:55N 52°28' E 004°35'0 0.5
2019-Jul-16 07:30N 52°28' E 004°35'5 9.4
2019-Jul-16 07:00N 52°29' E 004°27'816.4
2019-Jul-16 06:30N 52°35' E 004°18'816.3
2019-Jul-16 05:59N 52°41' E 004°08'816.4
2019-Jul-16 05:28N 52°46' E 003°57'816.5
2019-Jul-16 04:59N 52°51' E 003°47'1616.7
2019-Jul-16 04:02N 53°02' E 003°28'718.1
2019-Jul-16 03:38N 53°06' E 003°18'218.3
2019-Jul-16 03:30N 53°08' E 003°15'917.9
2019-Jul-16 03:00N 53°13' E 003°03'917.9
2019-Jul-16 02:30N 53°18' E 002°51'917.6
2019-Jul-16 02:00N 53°23' E 002°39'917.3
2019-Jul-16 01:28N 53°29' E 002°26'817.1
2019-Jul-16 01:01N 53°33' E 002°15'917.2
2019-Jul-16 00:30N 53°37' E 002°02'917.3
2019-Jul-16 00:00N 53°41' E 001°49'917.2
2019-Jul-15 23:30N 53°46' E 001°37'917.1
2019-Jul-15 23:01N 53°52' E 001°27'917.2
2019-Jul-15 22:30N 53°58' E 001°16'917.1
2019-Jul-15 22:01N 54°03' E 001°05'816.9
2019-Jul-15 21:30N 54°08' E 000°53'917.1
2019-Jul-15 21:00N 54°12' E 000°41'917.6
2019-Jul-15 20:30N 54°18' E 000°28'917.6
2019-Jul-15 20:00N 54°23' E 000°16'1717.3
2019-Jul-15 19:01N 54°32' W 000°08'3917.4
2019-Jul-15 16:47N 54°54' W 001°04'518.0
2019-Jul-15 16:30N 54°56' W 001°12'917.0
2019-Jul-15 16:00N 55°01' W 001°25'2 3.6
2019-Jul-15 15:30N 54°59' W 001°27'0 0.0
2019-Jul-15 14:52N 54°59' W 001°27'0 0.0
2019-Jul-15 14:28N 54°59' W 001°27'0 0.0
2019-Jul-15 13:56N 54°59' W 001°27'0 0.0
2019-Jul-15 13:29N 54°59' W 001°27'0 0.0
2019-Jul-15 12:56N 54°59' W 001°27'0 0.0
2019-Jul-15 12:26N 54°59' W 001°27'0 0.0
2019-Jul-15 11:56N 54°59' W 001°27'0 0.0
2019-Jul-15 11:26N 54°59' W 001°27'0 0.0
2019-Jul-15 10:56N 54°59' W 001°27'0 0.0
2019-Jul-15 10:28N 54°59' W 001°27'0 0.0
2019-Jul-15 09:59N 54°59' W 001°27'0 0.0
2019-Jul-15 09:29N 54°59' W 001°27'0 0.0
2019-Jul-15 08:59N 54°59' W 001°27'0 0.0
2019-Jul-15 08:29N 54°59' W 001°27'0 0.0
2019-Jul-15 08:00N 54°59' W 001°27'4 8.0
2019-Jul-15 07:30N 55°01' W 001°20'816.8
2019-Jul-15 07:01N 54°56' W 001°08'9016.7
2019-Jul-15 01:39N 54°06' E 000°60'215.7
2019-Jul-15 01:30N 54°05' E 001°03'816.0
2019-Jul-15 01:00N 53°60' E 001°14'816.3
2019-Jul-15 00:30N 53°54' E 001°24'816.4
2019-Jul-15 00:00N 53°49' E 001°34'1016.9
2019-Jul-14 23:26N 53°46' E 001°49'2916.5
2019-Jul-14 21:42N 53°30' E 002°30'315.8
2019-Jul-14 21:30N 53°28' E 002°34'1115.6
2019-Jul-14 20:46N 53°21' E 002°49'415.3
2019-Jul-14 20:30N 53°18' E 002°54'3614.8
2019-Jul-14 18:04N 52°55' E 003°40'114.8
2019-Jul-14 17:58N 52°54' E 003°42'714.9
2019-Jul-14 17:29N 52°49' E 003°51'915.1
2019-Jul-14 16:54N 52°44' E 004°02'1215.5
2019-Jul-14 16:09N 52°36' E 004°17'215.8
2019-Jul-14 16:01N 52°35' E 004°20'815.7
2019-Jul-14 15:31N 52°29' E 004°29'4 8.3
2019-Jul-14 15:00N 52°28' E 004°35'0 0.0
2019-Jul-14 14:28N 52°28' E 004°35'0 0.0
2019-Jul-14 13:58N 52°28' E 004°35'0 0.0
2019-Jul-14 13:28N 52°28' E 004°35'0 0.0
2019-Jul-14 12:58N 52°28' E 004°35'0 0.0
2019-Jul-14 12:28N 52°28' E 004°35'0 0.0
2019-Jul-14 11:55N 52°28' E 004°35'0 0.0
2019-Jul-14 11:28N 52°28' E 004°35'0 0.0
2019-Jul-14 10:55N 52°28' E 004°35'0 0.0
2019-Jul-14 10:28N 52°28' E 004°35'0 0.0
2019-Jul-14 09:58N 52°28' E 004°35'0 0.0
2019-Jul-14 09:28N 52°28' E 004°35'0 0.0
2019-Jul-14 08:58N 52°28' E 004°35'0 0.0
2019-Jul-14 08:25N 52°28' E 004°35'0 0.0
2019-Jul-14 07:58N 52°28' E 004°35'0 0.2
2019-Jul-14 07:30N 52°28' E 004°35'5 9.8
2019-Jul-14 07:00N 52°29' E 004°27'816.9
2019-Jul-14 06:30N 52°35' E 004°18'816.7
2019-Jul-14 06:00N 52°40' E 004°07'917.0
2019-Jul-14 05:30N 52°46' E 003°57'8816.6
2019-Jul-14 00:11N 53°39' E 001°58'317.3
2019-Jul-14 00:01N 53°40' E 001°53'917.3
2019-Jul-13 23:31N 53°45' E 001°41'917.3
2019-Jul-13 23:01N 53°50' E 001°29'917.3
2019-Jul-13 22:30N 53°56' E 001°19'917.3
2019-Jul-13 22:01N 54°02' E 001°08'917.3
2019-Jul-13 21:30N 54°07' E 000°56'8417.2
2019-Jul-13 16:35N 54°54' W 001°05'117.9
2019-Jul-13 16:30N 54°55' W 001°07'918.0
2019-Jul-13 16:00N 54°60' W 001°20'4 7.8
2019-Jul-13 15:30N 54°59' W 001°27'0 0.0
2019-Jul-13 14:58N 54°59' W 001°27'0 0.0
2019-Jul-13 14:28N 54°59' W 001°27'0 0.0
2019-Jul-13 13:58N 54°59' W 001°27'0 0.0
2019-Jul-13 13:28N 54°59' W 001°27'0 0.0
2019-Jul-13 12:58N 54°59' W 001°27'0 0.0
2019-Jul-13 12:22N 54°59' W 001°27'0 0.0
2019-Jul-13 11:52N 54°59' W 001°27'0 0.0
2019-Jul-13 11:22N 54°59' W 001°27'0 0.0
2019-Jul-13 10:52N 54°59' W 001°27'0 0.0
2019-Jul-13 10:22N 54°59' W 001°27'0 0.0
2019-Jul-13 09:52N 54°59' W 001°27'0 0.0
2019-Jul-13 09:22N 54°59' W 001°27'0 0.0
2019-Jul-13 08:55N 54°59' W 001°27'0 0.0
2019-Jul-13 08:25N 54°59' W 001°27'  
Track history (hours):
 
Tides and Currents Weather Stations Pressure Air Temp Water Temp Dewpoint Dewpoint Depression Visibility Wind Speed Wind Dir Waves Ship Positions

King of Scandinavia

Ship's website: http://www.dfds.co.uk/DSW/EN/OnBoard/na/KING.htm

Last reported at 2019-Jul-23 08:21 UTC. Time now 2019-Jul-23 08:59 UTC.
Position N 54°59' W 001°27'.

Length 166 m; beam 27.6 m; draft 6.2 m.

Type: Ship. MMSI: 220449000.

Date/timePositionNaut miles runAvg speedWind from/ knotsBaromVisibWave heightAir tempDewpointWater temp
2019-Jul-23 08:21N 54°59' W 001°27'0 0.5
2019-Jul-23 08:00N 54°60' W 001°27'4 8.9
2019-Jul-23 07:30N 55°00' W 001°19'815.2
2019-Jul-23 07:00N 54°56' W 001°08'9116.4
2019-Jul-23 01:28N 54°05' E 001°02'816.5
2019-Jul-23 01:00N 54°01' E 001°13'816.2
2019-Jul-23 00:30N 53°56' E 001°23'815.8
2019-Jul-23 00:00N 53°51' E 001°33'815.2
2019-Jul-22 23:30N 53°47' E 001°45'10416.0
2019-Jul-22 17:01N 52°44' E 004°03'515.3
2019-Jul-22 16:42N 52°41' E 004°09'515.2
2019-Jul-22 16:23N 52°38' E 004°15'615.1
2019-Jul-22 16:00N 52°34' E 004°22'714.7
2019-Jul-22 15:31N 52°29' E 004°31'3 5.8
2019-Jul-22 15:00N 52°28' E 004°35'0 0.0
2019-Jul-22 14:29N 52°28' E 004°35'0 0.0
2019-Jul-22 13:59N 52°28' E 004°35'0 0.0
2019-Jul-22 13:29N 52°28' E 004°35'0 0.0
2019-Jul-22 12:59N 52°28' E 004°35'0 0.0
2019-Jul-22 12:29N 52°28' E 004°35'0 0.0
2019-Jul-22 11:59N 52°28' E 004°35'0 0.0
2019-Jul-22 11:29N 52°28' E 004°35'0 0.0
2019-Jul-22 10:59N 52°28' E 004°35'0 0.0
2019-Jul-22 10:29N 52°28' E 004°35'0 0.0
2019-Jul-22 09:59N 52°28' E 004°35'0 0.0
2019-Jul-22 09:29N 52°28' E 004°35'0 0.0
2019-Jul-22 08:59N 52°28' E 004°35'0 0.0
2019-Jul-22 08:29N 52°28' E 004°35'0 0.0
2019-Jul-22 07:59N 52°28' E 004°35'0 0.1
2019-Jul-22 07:31N 52°28' E 004°35'5 9.2
2019-Jul-22 07:01N 52°29' E 004°28'815.8
2019-Jul-22 06:31N 52°35' E 004°19'816.3
2019-Jul-22 06:01N 52°40' E 004°09'1017.8
2019-Jul-22 05:25N 52°47' E 003°56'1018.0
2019-Jul-22 04:53N 52°54' E 003°43'1117.8
2019-Jul-22 04:16N 53°01' E 003°31'615.6
2019-Jul-22 03:53N 53°05' E 003°23'715.9
2019-Jul-22 03:28N 53°08' E 003°13'816.0
2019-Jul-22 03:00N 53°13' E 003°03'1716.1
2019-Jul-22 01:57N 53°22' E 002°40'2116.2
2019-Jul-22 00:38N 53°35' E 002°11'316.6
2019-Jul-22 00:29N 53°36' E 002°07'816.8
2019-Jul-22 00:01N 53°40' E 001°55'816.9
2019-Jul-21 23:31N 53°44' E 001°43'816.7
2019-Jul-21 23:01N 53°49' E 001°32'917.0
2019-Jul-21 22:31N 53°55' E 001°22'917.0
2019-Jul-21 22:00N 54°01' E 001°12'816.9
2019-Jul-21 21:31N 54°06' E 000°60'8518.8
2019-Jul-21 16:59N 54°53' W 001°02'919.1
2019-Jul-21 16:30N 54°58' W 001°16'713.1
2019-Jul-21 16:00N 54°60' W 001°27'1 1.2
2019-Jul-21 15:30N 54°59' W 001°27'0 0.0
2019-Jul-21 14:53N 54°59' W 001°27'0 0.0
2019-Jul-21 14:23N 54°59' W 001°27'0 0.0
2019-Jul-21 13:53N 54°59' W 001°27'0 0.0
2019-Jul-21 13:23N 54°59' W 001°27'0 0.0
2019-Jul-21 12:56N 54°59' W 001°27'0 0.0
2019-Jul-21 12:26N 54°59' W 001°27'0 0.0
2019-Jul-21 11:56N 54°59' W 001°27'0 0.0
2019-Jul-21 11:26N 54°59' W 001°27'0 0.0
2019-Jul-21 10:56N 54°59' W 001°27'0 0.0
2019-Jul-21 10:29N 54°59' W 001°27'0 0.0
2019-Jul-21 09:59N 54°59' W 001°27'0 0.0
2019-Jul-21 09:29N 54°59' W 001°27'0 0.0
2019-Jul-21 08:59N 54°59' W 001°27'0 0.0
2019-Jul-21 08:29N 54°59' W 001°27'0 0.3
2019-Jul-21 08:00N 54°60' W 001°27'4 8.1
2019-Jul-21 07:30N 55°00' W 001°20'714.9
2019-Jul-21 07:00N 54°56' W 001°09'8417.1
2019-Jul-21 02:05N 54°09' E 000°51'318.3
2019-Jul-21 01:56N 54°08' E 000°56'818.4
2019-Jul-21 01:30N 54°03' E 001°06'1018.1
2019-Jul-21 00:58N 53°57' E 001°19'817.6
2019-Jul-21 00:30N 53°52' E 001°30'917.2
2019-Jul-21 00:00N 53°48' E 001°43'916.9
2019-Jul-20 23:30N 53°45' E 001°56'10315.5
2019-Jul-20 16:48N 52°40' E 004°11'516.3
2019-Jul-20 16:30N 52°37' E 004°17'816.2
2019-Jul-20 16:00N 52°31' E 004°27'612.5
2019-Jul-20 15:30N 52°28' E 004°35'0 0.0
2019-Jul-20 15:00N 52°28' E 004°35'0 0.0
2019-Jul-20 14:29N 52°28' E 004°35'0 0.0
2019-Jul-20 13:59N 52°28' E 004°35'0 0.0
2019-Jul-20 13:29N 52°28' E 004°35'0 0.0
2019-Jul-20 12:59N 52°28' E 004°35'0 0.0
2019-Jul-20 12:29N 52°28' E 004°35'0 0.0
2019-Jul-20 11:59N 52°28' E 004°35'0 0.0
2019-Jul-20 11:29N 52°28' E 004°35'0 0.0
2019-Jul-20 10:59N 52°28' E 004°35'0 0.0
2019-Jul-20 10:29N 52°28' E 004°35'0 0.0
2019-Jul-20 09:59N 52°28' E 004°35'0 0.0
2019-Jul-20 09:29N 52°28' E 004°35'0 0.0
2019-Jul-20 08:59N 52°28' E 004°35'0 0.0
2019-Jul-20 08:29N 52°28' E 004°35'0 0.0
2019-Jul-20 07:59N 52°28' E 004°35'0 0.4
2019-Jul-20 07:30N 52°28' E 004°35'4 8.4
2019-Jul-20 07:00N 52°29' E 004°28'715.0
2019-Jul-20 06:30N 52°34' E 004°19'815.1
2019-Jul-20 06:00N 52°40' E 004°10'815.3
2019-Jul-20 05:30N 52°45' E 004°01'815.2
2019-Jul-20 05:00N 52°50' E 003°51'5815.6
2019-Jul-20 01:18N 53°25' E 002°35'817.5
2019-Jul-20 00:51N 53°30' E 002°24'1817.7
2019-Jul-19 23:49N 53°39' E 001°58'618.4
2019-Jul-19 23:30N 53°41' E 001°49'918.3
2019-Jul-19 23:00N 53°47' E 001°36'918.4
2019-Jul-19 22:30N 53°53' E 001°25'918.3
2019-Jul-19 22:01N 54°00' E 001°15'918.3
2019-Jul-19 21:31N 54°06' E 001°03'918.5
2019-Jul-19 21:00N 54°11' E 000°50'7819.0
2019-Jul-19 16:52N 54°53' W 001°03'719.0
2019-Jul-19 16:30N 54°57' W 001°14'815.4
2019-Jul-19 16:00N 55°00' W 001°26'1 2.4
2019-Jul-19 15:30N 54°59' W 001°27'0 0.0
2019-Jul-19 14:51N 54°59' W 001°27'0 0.0
2019-Jul-19 14:30N 54°59' W 001°27'0 0.0
2019-Jul-19 14:00N 54°59' W 001°27'0 0.0
2019-Jul-19 13:21N 54°59' W 001°27'0 0.0
2019-Jul-19 12:51N 54°59' W 001°27'0 0.0
2019-Jul-19 12:21N 54°59' W 001°27'0 0.0
2019-Jul-19 11:54N 54°59' W 001°27'0 0.0
2019-Jul-19 11:24N 54°59' W 001°27'0 0.0
2019-Jul-19 10:54N 54°59' W 001°27'0 0.0
2019-Jul-19 10:24N 54°59' W 001°27'0 0.0
2019-Jul-19 09:54N 54°59' W 001°27'0 0.0
2019-Jul-19 09:27N 54°59' W 001°27'0 0.0
2019-Jul-19 08:54N 54°59' W 001°27'0 0.0
2019-Jul-19 08:27N 54°59' W 001°27'1 1.8
2019-Jul-19 08:00N 55°00' W 001°27'611.8
2019-Jul-19 07:30N 54°60' W 001°16'917.6
2019-Jul-19 07:00N 54°55' W 001°03'8517.4
2019-Jul-19 02:06N 54°07' E 000°58'517.3
2019-Jul-19 01:49N 54°04' E 001°05'517.2
2019-Jul-19 01:30N 54°01' E 001°12'917.3
2019-Jul-19 01:00N 53°55' E 001°23'917.3
2019-Jul-19 00:30N 53°50' E 001°35'817.0
2019-Jul-19 00:01N 53°47' E 001°48'816.8
2019-Jul-18 23:31N 53°44' E 002°01'9415.9
2019-Jul-18 17:39N 52°44' E 004°02'1216.8
2019-Jul-18 16:56N 52°36' E 004°17'716.8
2019-Jul-18 16:31N 52°32' E 004°25'714.2
2019-Jul-18 16:01N 52°28' E 004°35'0 0.0
2019-Jul-18 15:30N 52°28' E 004°35'0 0.0
2019-Jul-18 15:00N 52°28' E 004°35'0 0.0
2019-Jul-18 14:28N 52°28' E 004°35'0 0.0
2019-Jul-18 13:58N 52°28' E 004°35'0 0.0
2019-Jul-18 13:28N 52°28' E 004°35'0 0.0
2019-Jul-18 12:58N 52°28' E 004°35'0 0.0
2019-Jul-18 12:28N 52°28' E 004°35'0 0.0
2019-Jul-18 11:58N 52°28' E 004°35'0 0.0
2019-Jul-18 11:28N 52°28' E 004°35'0 0.0
2019-Jul-18 10:58N 52°28' E 004°35'0 0.0
2019-Jul-18 10:28N 52°28' E 004°35'0 0.0
2019-Jul-18 09:58N 52°28' E 004°35'0 0.0
2019-Jul-18 09:28N 52°28' E 004°35'0 0.0
2019-Jul-18 08:58N 52°28' E 004°35'0 0.0
2019-Jul-18 08:28N 52°28' E 004°35'0 0.0
2019-Jul-18 07:58N 52°28' E 004°35'0 0.3
2019-Jul-18 07:30N 52°28' E 004°35'5 9.7
2019-Jul-18 07:00N 52°29' E 004°27'815.6
2019-Jul-18 06:30N 52°35' E 004°19'815.5
2019-Jul-18 06:00N 52°40' E 004°09'815.5
2019-Jul-18 05:30N 52°45' E 003°59'815.5
2019-Jul-18 05:00N 52°50' E 003°50'815.5
2019-Jul-18 04:30N 52°55' E 003°40'815.3
2019-Jul-18 04:00N 53°00' E 003°31'915.2
2019-Jul-18 03:23N 53°06' E 003°18'4816.4
2019-Jul-18 00:27N 53°34' E 002°13'817.4
2019-Jul-18 00:00N 53°38' E 002°01'917.7
2019-Jul-17 23:30N 53°42' E 001°48'917.8
2019-Jul-17 23:00N 53°47' E 001°35'918.0
2019-Jul-17 22:30N 53°53' E 001°24'918.5
2019-Jul-17 22:00N 53°59' E 001°13'918.6
2019-Jul-17 21:30N 54°05' E 001°01'8819.3
2019-Jul-17 16:58N 54°53' W 001°06'919.8
2019-Jul-17 16:30N 54°59' W 001°18'510.1
2019-Jul-17 16:00N 54°60' W 001°27'0 0.3
2019-Jul-17 15:30N 54°59' W 001°27'0 0.0
2019-Jul-17 14:55N 54°59' W 001°27'0 0.0
2019-Jul-17 14:25N 54°59' W 001°27'0 0.0
2019-Jul-17 13:55N 54°59' W 001°27'0 0.0
2019-Jul-17 13:25N 54°59' W 001°27'0 0.0
2019-Jul-17 12:55N 54°59' W 001°27'0 0.0
2019-Jul-17 12:28N 54°59' W 001°27'0 0.0
2019-Jul-17 11:58N 54°59' W 001°27'0 0.0
2019-Jul-17 11:28N 54°59' W 001°27'0 0.0
2019-Jul-17 10:55N 54°59' W 001°27'0 0.0
2019-Jul-17 10:25N 54°59' W 001°27'0 0.0
2019-Jul-17 09:58N 54°59' W 001°27'0 0.0
2019-Jul-17 09:28N 54°59' W 001°27'0 0.0
2019-Jul-17 08:58N 54°59' W 001°27'0 0.0
2019-Jul-17 08:28N 54°59' W 001°27'0 0.2
2019-Jul-17 08:00N 54°59' W 001°27'4 7.5
2019-Jul-17 07:30N 55°01' W 001°21'917.1
2019-Jul-17 07:01N 54°56' W 001°08'816.4
2019-Jul-17 06:31N 54°51' W 000°56'7815.5
2019-Jul-17 01:28N 54°08' E 000°55'716.1
2019-Jul-17 01:00N 54°03' E 001°06'816.6
2019-Jul-17 00:30N 53°58' E 001°17'1117.0
2019-Jul-16 23:53N 53°52' E 001°31'617.1
2019-Jul-16 23:31N 53°48' E 001°39'1017.9
2019-Jul-16 22:58N 53°44' E 001°55'918.6
2019-Jul-16 22:30N 53°40' E 002°08'6616.7
2019-Jul-16 18:34N 52°59' E 003°33'115.6
2019-Jul-16 18:30N 52°58' E 003°34'1316.0
2019-Jul-16 17:42N 52°49' E 003°50'2016.5
2019-Jul-16 16:29N 52°37' E 004°16'816.7
2019-Jul-16 16:01N 52°31' E 004°26'713.5
2019-Jul-16 15:30N 52°28' E 004°35'0 0.1
2019-Jul-16 15:01N 52°28' E 004°35'0 0.0
2019-Jul-16 14:28N 52°28' E 004°35'0 0.0
2019-Jul-16 13:58N 52°28' E 004°35'0 0.0
2019-Jul-16 13:28N 52°28' E 004°35'0 0.0
2019-Jul-16 12:58N 52°28' E 004°35'0 0.0
2019-Jul-16 12:28N 52°28' E 004°35'0 0.0
2019-Jul-16 11:58N 52°28' E 004°35'0 0.0
2019-Jul-16 11:28N 52°28' E 004°35'0 0.0
2019-Jul-16 10:55N 52°28' E 004°35'0 0.0
2019-Jul-16 10:28N 52°28' E 004°35'0 0.0
2019-Jul-16 09:55N 52°28' E 004°35'0 0.0
2019-Jul-16 09:25N 52°28' E 004°35'0 0.0
2019-Jul-16 08:55N 52°28' E 004°35'0 0.0
2019-Jul-16 08:25N 52°28' E 004°35'0 0.0
2019-Jul-16 07:55N 52°28' E 004°35'0 0.5
2019-Jul-16 07:30N 52°28' E 004°35'5 9.4
2019-Jul-16 07:00N 52°29' E 004°27'816.4
2019-Jul-16 06:30N 52°35' E 004°18'816.3
2019-Jul-16 05:59N 52°41' E 004°08'816.4
2019-Jul-16 05:28N 52°46' E 003°57'816.5
2019-Jul-16 04:59N 52°51' E 003°47'1616.7
2019-Jul-16 04:02N 53°02' E 003°28'718.1
2019-Jul-16 03:38N 53°06' E 003°18'218.3
2019-Jul-16 03:30N 53°08' E 003°15'917.9
2019-Jul-16 03:00N 53°13' E 003°03'917.9
2019-Jul-16 02:30N 53°18' E 002°51'917.6
2019-Jul-16 02:00N 53°23' E 002°39'917.3
2019-Jul-16 01:28N 53°29' E 002°26'817.1
2019-Jul-16 01:01N 53°33' E 002°15'917.2
2019-Jul-16 00:30N 53°37' E 002°02'917.3
2019-Jul-16 00:00N 53°41' E 001°49'917.2
2019-Jul-15 23:30N 53°46' E 001°37'917.1
2019-Jul-15 23:01N 53°52' E 001°27'917.2
2019-Jul-15 22:30N 53°58' E 001°16'917.1
2019-Jul-15 22:01N 54°03' E 001°05'816.9
2019-Jul-15 21:30N 54°08' E 000°53'917.1
2019-Jul-15 21:00N 54°12' E 000°41'917.6
2019-Jul-15 20:30N 54°18' E 000°28'917.6
2019-Jul-15 20:00N 54°23' E 000°16'1717.3
2019-Jul-15 19:01N 54°32' W 000°08'3917.4
2019-Jul-15 16:47N 54°54' W 001°04'518.0
2019-Jul-15 16:30N 54°56' W 001°12'917.0
2019-Jul-15 16:00N 55°01' W 001°25'2 3.6
2019-Jul-15 15:30N 54°59' W 001°27'0 0.0
2019-Jul-15 14:52N 54°59' W 001°27'0 0.0
2019-Jul-15 14:28N 54°59' W 001°27'0 0.0
2019-Jul-15 13:56N 54°59' W 001°27'0 0.0
2019-Jul-15 13:29N 54°59' W 001°27'0 0.0
2019-Jul-15 12:56N 54°59' W 001°27'0 0.0
2019-Jul-15 12:26N 54°59' W 001°27'0 0.0
2019-Jul-15 11:56N 54°59' W 001°27'0 0.0
2019-Jul-15 11:26N 54°59' W 001°27'0 0.0
2019-Jul-15 10:56N 54°59' W 001°27'0 0.0
2019-Jul-15 10:28N 54°59' W 001°27'0 0.0
2019-Jul-15 09:59N 54°59' W 001°27'0 0.0
2019-Jul-15 09:29N 54°59' W 001°27'0 0.0
2019-Jul-15 08:59N 54°59' W 001°27'0 0.0
2019-Jul-15 08:29N 54°59' W 001°27'0 0.0
2019-Jul-15 08:00N 54°59' W 001°27'4 8.0
2019-Jul-15 07:30N 55°01' W 001°20'816.8
2019-Jul-15 07:01N 54°56' W 001°08'9016.7
2019-Jul-15 01:39N 54°06' E 000°60'215.7
2019-Jul-15 01:30N 54°05' E 001°03'816.0
2019-Jul-15 01:00N 53°60' E 001°14'816.3
2019-Jul-15 00:30N 53°54' E 001°24'816.4
2019-Jul-15 00:00N 53°49' E 001°34'1016.9
2019-Jul-14 23:26N 53°46' E 001°49'2916.5
2019-Jul-14 21:42N 53°30' E 002°30'315.8
2019-Jul-14 21:30N 53°28' E 002°34'1115.6
2019-Jul-14 20:46N 53°21' E 002°49'415.3
2019-Jul-14 20:30N 53°18' E 002°54'3614.8
2019-Jul-14 18:04N 52°55' E 003°40'114.8
2019-Jul-14 17:58N 52°54' E 003°42'714.9
2019-Jul-14 17:29N 52°49' E 003°51'915.1
2019-Jul-14 16:54N 52°44' E 004°02'1215.5
2019-Jul-14 16:09N 52°36' E 004°17'215.8
2019-Jul-14 16:01N 52°35' E 004°20'815.7
2019-Jul-14 15:31N 52°29' E 004°29'4 8.3
2019-Jul-14 15:00N 52°28' E 004°35'0 0.0
2019-Jul-14 14:28N 52°28' E 004°35'0 0.0
2019-Jul-14 13:58N 52°28' E 004°35'0 0.0
2019-Jul-14 13:28N 52°28' E 004°35'0 0.0
2019-Jul-14 12:58N 52°28' E 004°35'0 0.0
2019-Jul-14 12:28N 52°28' E 004°35'0 0.0
2019-Jul-14 11:55N 52°28' E 004°35'0 0.0
2019-Jul-14 11:28N 52°28' E 004°35'0 0.0
2019-Jul-14 10:55N 52°28' E 004°35'0 0.0
2019-Jul-14 10:28N 52°28' E 004°35'0 0.0
2019-Jul-14 09:58N 52°28' E 004°35'0 0.0
2019-Jul-14 09:28N 52°28' E 004°35'0 0.0
2019-Jul-14 08:58N 52°28' E 004°35'0 0.0
2019-Jul-14 08:25N 52°28' E 004°35'0 0.0
2019-Jul-14 07:58N 52°28' E 004°35'0 0.2
2019-Jul-14 07:30N 52°28' E 004°35'5 9.8
2019-Jul-14 07:00N 52°29' E 004°27'816.9
2019-Jul-14 06:30N 52°35' E 004°18'816.7
2019-Jul-14 06:00N 52°40' E 004°07'917.0
2019-Jul-14 05:30N 52°46' E 003°57'8816.6
2019-Jul-14 00:11N 53°39' E 001°58'317.3
2019-Jul-14 00:01N 53°40' E 001°53'917.3
2019-Jul-13 23:31N 53°45' E 001°41'917.3
2019-Jul-13 23:01N 53°50' E 001°29'917.3
2019-Jul-13 22:30N 53°56' E 001°19'917.3
2019-Jul-13 22:01N 54°02' E 001°08'917.3
2019-Jul-13 21:30N 54°07' E 000°56'8417.2
2019-Jul-13 16:35N 54°54' W 001°05'117.9
2019-Jul-13 16:30N 54°55' W 001°07'918.0
2019-Jul-13 16:00N 54°60' W 001°20'4 7.8
2019-Jul-13 15:30N 54°59' W 001°27'0 0.0
2019-Jul-13 14:58N 54°59' W 001°27'0 0.0
2019-Jul-13 14:28N 54°59' W 001°27'0 0.0
2019-Jul-13 13:58N 54°59' W 001°27'0 0.0
2019-Jul-13 13:28N 54°59' W 001°27'0 0.0
2019-Jul-13 12:58N 54°59' W 001°27'0 0.0
2019-Jul-13 12:22N 54°59' W 001°27'0 0.0
2019-Jul-13 11:52N 54°59' W 001°27'0 0.0
2019-Jul-13 11:22N 54°59' W 001°27'0 0.0
2019-Jul-13 10:52N 54°59' W 001°27'0 0.0
2019-Jul-13 10:22N 54°59' W 001°27'0 0.0
2019-Jul-13 09:52N 54°59' W 001°27'0 0.0
2019-Jul-13 09:22N 54°59' W 001°27'0 0.0
2019-Jul-13 08:55N 54°59' W 001°27'0 0.0
2019-Jul-13 08:25N 54°59' W 001°27'  

Dump ship's entire track history